< < Back
Terminal Aerodrome Forecast


Current Version              Previous Versions:   1  2  3  4  5  6  7  8  9  

Terminal Aerodrome Forecast

769
FTUS42 KFFC 302200 AAB
TAFATL
TAF AMD
KATL 302200Z 3022/0124 24008KT P6SM SCT070
     FM010100 23005KT P6SM SCT100 BKN250
     FM010600 22004KT 5SM BR SCT008 BKN250
     FM011400 27005KT P6SM SCT040
     FM011800 28007KT P6SM FEW050=



Latest METAR

439
SAUS70 KWBC 302200 RRX
MTRATL
METAR KATL 302252Z 20007KT 10SM SCT070TCU SCT100 BKN250 33/16 A2994 RMK
AO2 SLP127 TCU N-NE / SE-SW / W-NW T03330156


USA.gov is the U.S. government's official web portal to all federal, state and local government web resources and services.